sensor_id;sensor_type;location;lat;lon;timestamp;P1;durP1;ratioP1;P2;durP2;ratioP2
16922;SDS011;8578;50.938;13.556;2024-02-26T00:01:34;10.60;;;6.40;;
16922;SDS011;8578;50.938;13.556;2024-02-26T00:04:02;10.23;;;6.87;;
16922;SDS011;8578;50.938;13.556;2024-02-26T00:06:30;12.43;;;7.23;;
16922;SDS011;8578;50.938;13.556;2024-02-26T00:08:58;10.87;;;6.97;;
16922;SDS011;8578;50.938;13.556;2024-02-26T00:11:27;10.47;;;6.90;;
16922;SDS011;8578;50.938;13.556;2024-02-26T00:13:55;9.83;;;6.80;;
16922;SDS011;8578;50.938;13.556;2024-02-26T00:16:23;9.10;;;6.33;;
16922;SDS011;8578;50.938;13.556;2024-02-26T00:18:53;10.97;;;6.87;;
16922;SDS011;8578;50.938;13.556;2024-02-26T00:21:20;9.90;;;6.37;;
16922;SDS011;8578;50.938;13.556;2024-02-26T00:23:48;9.80;;;6.30;;
16922;SDS011;8578;50.938;13.556;2024-02-26T00:26:16;9.37;;;6.47;;
16922;SDS011;8578;50.938;13.556;2024-02-26T00:28:43;10.93;;;6.67;;
16922;SDS011;8578;50.938;13.556;2024-02-26T00:31:11;11.00;;;6.90;;
16922;SDS011;8578;50.938;13.556;2024-02-26T00:33:38;8.93;;;6.53;;
16922;SDS011;8578;50.938;13.556;2024-02-26T00:36:08;8.90;;;6.23;;
16922;SDS011;8578;50.938;13.556;2024-02-26T00:38:37;10.60;;;6.90;;
16922;SDS011;8578;50.938;13.556;2024-02-26T00:41:05;9.80;;;6.63;;
16922;SDS011;8578;50.938;13.556;2024-02-26T00:43:34;10.53;;;7.00;;
16922;SDS011;8578;50.938;13.556;2024-02-26T00:46:01;10.43;;;7.17;;
16922;SDS011;8578;50.938;13.556;2024-02-26T00:48:29;10.43;;;6.57;;
16922;SDS011;8578;50.938;13.556;2024-02-26T00:50:57;12.00;;;7.10;;
16922;SDS011;8578;50.938;13.556;2024-02-26T00:53:26;14.60;;;8.63;;
16922;SDS011;8578;50.938;13.556;2024-02-26T00:55:56;11.77;;;7.40;;
16922;SDS011;8578;50.938;13.556;2024-02-26T00:58:25;12.43;;;7.97;;
16922;SDS011;8578;50.938;13.556;2024-02-26T01:00:52;12.70;;;7.23;;
16922;SDS011;8578;50.938;13.556;2024-02-26T01:03:21;10.40;;;6.77;;
16922;SDS011;8578;50.938;13.556;2024-02-26T01:05:49;11.67;;;7.30;;
16922;SDS011;8578;50.938;13.556;2024-02-26T01:08:18;12.47;;;7.27;;
16922;SDS011;8578;50.938;13.556;2024-02-26T01:10:47;11.80;;;7.03;;
16922;SDS011;8578;50.938;13.556;2024-02-26T01:13:15;10.80;;;6.97;;
16922;SDS011;8578;50.938;13.556;2024-02-26T01:15:43;9.67;;;6.53;;
16922;SDS011;8578;50.938;13.556;2024-02-26T01:18:11;10.83;;;6.47;;
16922;SDS011;8578;50.938;13.556;2024-02-26T01:20:39;10.70;;;7.13;;
16922;SDS011;8578;50.938;13.556;2024-02-26T01:23:06;14.50;;;7.60;;
16922;SDS011;8578;50.938;13.556;2024-02-26T01:25:34;12.10;;;7.37;;
16922;SDS011;8578;50.938;13.556;2024-02-26T01:28:03;11.13;;;7.27;;
16922;SDS011;8578;50.938;13.556;2024-02-26T01:30:30;11.80;;;6.80;;
16922;SDS011;8578;50.938;13.556;2024-02-26T01:32:58;13.50;;;7.73;;
16922;SDS011;8578;50.938;13.556;2024-02-26T01:35:26;13.03;;;6.40;;
16922;SDS011;8578;50.938;13.556;2024-02-26T01:37:53;11.97;;;6.97;;
16922;SDS011;8578;50.938;13.556;2024-02-26T01:40:21;11.53;;;6.77;;
16922;SDS011;8578;50.938;13.556;2024-02-26T01:42:49;10.03;;;6.70;;
16922;SDS011;8578;50.938;13.556;2024-02-26T01:45:21;10.00;;;6.77;;
16922;SDS011;8578;50.938;13.556;2024-02-26T01:47:51;11.60;;;7.17;;
16922;SDS011;8578;50.938;13.556;2024-02-26T01:50:20;11.70;;;7.33;;
16922;SDS011;8578;50.938;13.556;2024-02-26T01:52:49;10.97;;;7.00;;
16922;SDS011;8578;50.938;13.556;2024-02-26T01:55:17;11.10;;;6.63;;
16922;SDS011;8578;50.938;13.556;2024-02-26T01:57:45;10.13;;;6.47;;
16922;SDS011;8578;50.938;13.556;2024-02-26T02:00:14;10.67;;;7.10;;
16922;SDS011;8578;50.938;13.556;2024-02-26T02:02:45;10.57;;;6.33;;
16922;SDS011;8578;50.938;13.556;2024-02-26T02:05:15;11.13;;;7.00;;
16922;SDS011;8578;50.938;13.556;2024-02-26T02:07:42;11.47;;;6.47;;
16922;SDS011;8578;50.938;13.556;2024-02-26T02:10:11;9.27;;;6.23;;
16922;SDS011;8578;50.938;13.556;2024-02-26T02:12:39;12.20;;;6.53;;
16922;SDS011;8578;50.938;13.556;2024-02-26T02:15:07;11.40;;;7.27;;
16922;SDS011;8578;50.938;13.556;2024-02-26T02:17:35;11.10;;;6.90;;
16922;SDS011;8578;50.938;13.556;2024-02-26T02:20:04;10.17;;;6.43;;
16922;SDS011;8578;50.938;13.556;2024-02-26T02:22:37;10.17;;;6.70;;
16922;SDS011;8578;50.938;13.556;2024-02-26T02:25:05;9.90;;;6.80;;
16922;SDS011;8578;50.938;13.556;2024-02-26T02:27:33;9.50;;;6.70;;
16922;SDS011;8578;50.938;13.556;2024-02-26T02:30:00;11.00;;;6.60;;
16922;SDS011;8578;50.938;13.556;2024-02-26T02:32:29;11.00;;;6.83;;
16922;SDS011;8578;50.938;13.556;2024-02-26T02:34:57;12.40;;;7.47;;
16922;SDS011;8578;50.938;13.556;2024-02-26T02:37:26;9.37;;;6.27;;
16922;SDS011;8578;50.938;13.556;2024-02-26T02:39:55;9.60;;;6.60;;
16922;SDS011;8578;50.938;13.556;2024-02-26T02:42:24;10.40;;;6.80;;
16922;SDS011;8578;50.938;13.556;2024-02-26T02:44:51;11.40;;;7.23;;
16922;SDS011;8578;50.938;13.556;2024-02-26T02:47:19;11.17;;;7.57;;
16922;SDS011;8578;50.938;13.556;2024-02-26T02:49:47;10.10;;;6.90;;
16922;SDS011;8578;50.938;13.556;2024-02-26T02:52:15;13.47;;;7.13;;
16922;SDS011;8578;50.938;13.556;2024-02-26T02:54:43;11.20;;;7.37;;
16922;SDS011;8578;50.938;13.556;2024-02-26T02:57:13;12.07;;;6.90;;
16922;SDS011;8578;50.938;13.556;2024-02-26T02:59:41;10.30;;;6.33;;
16922;SDS011;8578;50.938;13.556;2024-02-26T03:02:08;12.10;;;6.97;;
16922;SDS011;8578;50.938;13.556;2024-02-26T03:04:36;10.87;;;6.83;;
16922;SDS011;8578;50.938;13.556;2024-02-26T03:07:05;12.30;;;7.47;;
16922;SDS011;8578;50.938;13.556;2024-02-26T03:09:32;12.07;;;6.70;;
16922;SDS011;8578;50.938;13.556;2024-02-26T03:11:59;11.03;;;6.40;;
16922;SDS011;8578;50.938;13.556;2024-02-26T03:14:28;11.53;;;6.63;;
16922;SDS011;8578;50.938;13.556;2024-02-26T03:16:56;10.03;;;6.37;;
16922;SDS011;8578;50.938;13.556;2024-02-26T03:19:24;10.13;;;5.77;;
16922;SDS011;8578;50.938;13.556;2024-02-26T03:21:52;10.17;;;5.97;;
16922;SDS011;8578;50.938;13.556;2024-02-26T03:24:20;8.50;;;5.50;;
16922;SDS011;8578;50.938;13.556;2024-02-26T03:26:47;8.23;;;5.37;;
16922;SDS011;8578;50.938;13.556;2024-02-26T03:29:15;9.20;;;6.33;;
16922;SDS011;8578;50.938;13.556;2024-02-26T03:31:44;10.10;;;6.30;;
16922;SDS011;8578;50.938;13.556;2024-02-26T03:34:12;9.17;;;6.27;;
16922;SDS011;8578;50.938;13.556;2024-02-26T03:36:41;8.77;;;5.87;;
16922;SDS011;8578;50.938;13.556;2024-02-26T03:39:08;10.93;;;6.80;;
16922;SDS011;8578;50.938;13.556;2024-02-26T03:41:36;12.00;;;6.87;;
16922;SDS011;8578;50.938;13.556;2024-02-26T03:44:05;13.33;;;7.47;;
16922;SDS011;8578;50.938;13.556;2024-02-26T03:46:32;13.23;;;8.00;;
16922;SDS011;8578;50.938;13.556;2024-02-26T03:49:01;12.57;;;7.93;;
16922;SDS011;8578;50.938;13.556;2024-02-26T03:51:29;10.83;;;7.23;;
16922;SDS011;8578;50.938;13.556;2024-02-26T03:53:58;14.33;;;8.03;;
16922;SDS011;8578;50.938;13.556;2024-02-26T03:56:25;12.57;;;7.37;;
16922;SDS011;8578;50.938;13.556;2024-02-26T03:58:53;10.97;;;7.30;;
16922;SDS011;8578;50.938;13.556;2024-02-26T04:01:21;11.07;;;7.03;;
16922;SDS011;8578;50.938;13.556;2024-02-26T04:03:51;15.17;;;7.73;;
16922;SDS011;8578;50.938;13.556;2024-02-26T04:06:20;12.20;;;7.70;;
16922;SDS011;8578;50.938;13.556;2024-02-26T04:08:49;11.23;;;7.10;;
16922;SDS011;8578;50.938;13.556;2024-02-26T04:11:16;10.93;;;6.63;;
16922;SDS011;8578;50.938;13.556;2024-02-26T04:13:45;10.80;;;6.50;;
16922;SDS011;8578;50.938;13.556;2024-02-26T04:16:15;11.07;;;6.53;;
16922;SDS011;8578;50.938;13.556;2024-02-26T04:18:43;9.83;;;6.20;;
16922;SDS011;8578;50.938;13.556;2024-02-26T04:21:10;10.90;;;6.50;;
16922;SDS011;8578;50.938;13.556;2024-02-26T04:23:39;11.60;;;6.97;;
16922;SDS011;8578;50.938;13.556;2024-02-26T04:26:07;10.73;;;6.97;;
16922;SDS011;8578;50.938;13.556;2024-02-26T04:28:34;11.10;;;6.57;;
16922;SDS011;8578;50.938;13.556;2024-02-26T04:31:03;12.30;;;7.97;;
16922;SDS011;8578;50.938;13.556;2024-02-26T04:33:33;12.80;;;7.43;;
16922;SDS011;8578;50.938;13.556;2024-02-26T04:36:02;13.23;;;7.60;;
16922;SDS011;8578;50.938;13.556;2024-02-26T04:38:30;11.97;;;7.70;;
16922;SDS011;8578;50.938;13.556;2024-02-26T04:40:59;11.90;;;7.23;;
16922;SDS011;8578;50.938;13.556;2024-02-26T04:43:26;10.13;;;6.80;;
16922;SDS011;8578;50.938;13.556;2024-02-26T04:45:53;11.17;;;6.97;;
16922;SDS011;8578;50.938;13.556;2024-02-26T04:48:23;11.77;;;7.23;;
16922;SDS011;8578;50.938;13.556;2024-02-26T04:50:50;14.37;;;7.90;;
16922;SDS011;8578;50.938;13.556;2024-02-26T04:53:18;12.07;;;7.23;;
16922;SDS011;8578;50.938;13.556;2024-02-26T04:55:46;14.67;;;7.50;;
16922;SDS011;8578;50.938;13.556;2024-02-26T04:58:15;13.53;;;7.90;;
16922;SDS011;8578;50.938;13.556;2024-02-26T05:00:43;13.00;;;7.50;;
16922;SDS011;8578;50.938;13.556;2024-02-26T05:03:10;14.73;;;8.23;;
16922;SDS011;8578;50.938;13.556;2024-02-26T05:05:39;13.93;;;7.27;;
16922;SDS011;8578;50.938;13.556;2024-02-26T05:08:07;14.43;;;7.27;;
16922;SDS011;8578;50.938;13.556;2024-02-26T05:10:35;11.10;;;6.63;;
16922;SDS011;8578;50.938;13.556;2024-02-26T05:13:05;10.77;;;6.67;;
16922;SDS011;8578;50.938;13.556;2024-02-26T05:15:34;11.70;;;6.73;;
16922;SDS011;8578;50.938;13.556;2024-02-26T05:18:02;9.47;;;6.37;;
16922;SDS011;8578;50.938;13.556;2024-02-26T05:20:30;10.03;;;6.27;;
16922;SDS011;8578;50.938;13.556;2024-02-26T05:23:01;11.60;;;6.43;;
16922;SDS011;8578;50.938;13.556;2024-02-26T05:25:30;12.20;;;6.83;;
16922;SDS011;8578;50.938;13.556;2024-02-26T05:27:57;10.10;;;6.50;;
16922;SDS011;8578;50.938;13.556;2024-02-26T05:30:25;12.03;;;6.93;;
16922;SDS011;8578;50.938;13.556;2024-02-26T05:32:56;12.23;;;7.50;;
16922;SDS011;8578;50.938;13.556;2024-02-26T05:35:26;12.60;;;7.63;;
16922;SDS011;8578;50.938;13.556;2024-02-26T05:37:54;11.77;;;7.50;;
16922;SDS011;8578;50.938;13.556;2024-02-26T05:40:22;12.67;;;7.37;;
16922;SDS011;8578;50.938;13.556;2024-02-26T05:42:50;15.50;;;8.57;;
16922;SDS011;8578;50.938;13.556;2024-02-26T05:45:18;14.30;;;7.67;;
16922;SDS011;8578;50.938;13.556;2024-02-26T05:47:46;15.90;;;8.63;;
16922;SDS011;8578;50.938;13.556;2024-02-26T05:50:16;18.20;;;8.50;;
16922;SDS011;8578;50.938;13.556;2024-02-26T05:52:43;15.83;;;9.40;;
16922;SDS011;8578;50.938;13.556;2024-02-26T05:55:11;17.13;;;8.97;;
16922;SDS011;8578;50.938;13.556;2024-02-26T05:57:39;16.00;;;8.40;;
16922;SDS011;8578;50.938;13.556;2024-02-26T06:00:07;17.77;;;9.03;;
16922;SDS011;8578;50.938;13.556;2024-02-26T06:02:38;15.57;;;8.53;;
16922;SDS011;8578;50.938;13.556;2024-02-26T06:05:06;14.93;;;8.40;;
16922;SDS011;8578;50.938;13.556;2024-02-26T06:07:37;15.43;;;8.53;;
16922;SDS011;8578;50.938;13.556;2024-02-26T06:10:05;15.33;;;7.60;;
16922;SDS011;8578;50.938;13.556;2024-02-26T06:12:34;14.33;;;7.87;;
16922;SDS011;8578;50.938;13.556;2024-02-26T06:15:02;18.80;;;8.37;;
16922;SDS011;8578;50.938;13.556;2024-02-26T06:17:30;21.83;;;10.20;;
16922;SDS011;8578;50.938;13.556;2024-02-26T06:19:58;19.83;;;10.03;;
16922;SDS011;8578;50.938;13.556;2024-02-26T06:22:27;18.20;;;9.87;;
16922;SDS011;8578;50.938;13.556;2024-02-26T06:24:55;19.73;;;11.27;;
16922;SDS011;8578;50.938;13.556;2024-02-26T06:27:23;31.33;;;13.47;;
16922;SDS011;8578;50.938;13.556;2024-02-26T06:29:51;60.90;;;20.33;;
16922;SDS011;8578;50.938;13.556;2024-02-26T06:32:22;69.77;;;23.73;;
16922;SDS011;8578;50.938;13.556;2024-02-26T06:37:45;40.67;;;15.17;;
16922;SDS011;8578;50.938;13.556;2024-02-26T06:40:15;48.00;;;17.97;;
16922;SDS011;8578;50.938;13.556;2024-02-26T06:42:43;62.37;;;21.80;;
16922;SDS011;8578;50.938;13.556;2024-02-26T06:45:14;46.03;;;17.70;;
16922;SDS011;8578;50.938;13.556;2024-02-26T06:47:43;44.53;;;18.20;;
16922;SDS011;8578;50.938;13.556;2024-02-26T06:50:12;20.93;;;9.00;;
16922;SDS011;8578;50.938;13.556;2024-02-26T06:52:40;16.30;;;7.50;;
16922;SDS011;8578;50.938;13.556;2024-02-26T06:55:07;18.93;;;7.90;;
16922;SDS011;8578;50.938;13.556;2024-02-26T06:57:37;15.13;;;8.13;;
16922;SDS011;8578;50.938;13.556;2024-02-26T07:00:06;14.57;;;7.50;;
16922;SDS011;8578;50.938;13.556;2024-02-26T07:02:34;18.67;;;9.30;;
16922;SDS011;8578;50.938;13.556;2024-02-26T07:05:05;20.03;;;10.30;;
16922;SDS011;8578;50.938;13.556;2024-02-26T07:07:33;22.30;;;10.80;;
16922;SDS011;8578;50.938;13.556;2024-02-26T07:10:00;23.53;;;12.50;;
16922;SDS011;8578;50.938;13.556;2024-02-26T07:12:29;17.70;;;10.87;;
16922;SDS011;8578;50.938;13.556;2024-02-26T07:14:58;21.23;;;11.47;;
16922;SDS011;8578;50.938;13.556;2024-02-26T07:17:26;21.17;;;11.23;;
16922;SDS011;8578;50.938;13.556;2024-02-26T07:19:54;23.23;;;12.27;;
16922;SDS011;8578;50.938;13.556;2024-02-26T07:22:23;22.57;;;11.83;;
16922;SDS011;8578;50.938;13.556;2024-02-26T07:24:51;20.23;;;11.90;;
16922;SDS011;8578;50.938;13.556;2024-02-26T07:27:18;23.27;;;12.20;;
16922;SDS011;8578;50.938;13.556;2024-02-26T07:29:47;22.67;;;12.40;;
16922;SDS011;8578;50.938;13.556;2024-02-26T07:32:16;16.93;;;10.37;;
16922;SDS011;8578;50.938;13.556;2024-02-26T07:34:44;18.07;;;10.20;;
16922;SDS011;8578;50.938;13.556;2024-02-26T07:37:12;20.23;;;9.93;;
16922;SDS011;8578;50.938;13.556;2024-02-26T07:39:40;15.50;;;9.10;;
16922;SDS011;8578;50.938;13.556;2024-02-26T07:42:08;15.87;;;9.00;;
16922;SDS011;8578;50.938;13.556;2024-02-26T07:44:36;15.57;;;8.93;;
16922;SDS011;8578;50.938;13.556;2024-02-26T07:47:03;17.67;;;10.13;;
16922;SDS011;8578;50.938;13.556;2024-02-26T07:49:32;16.53;;;9.90;;
16922;SDS011;8578;50.938;13.556;2024-02-26T07:52:04;21.37;;;12.17;;
16922;SDS011;8578;50.938;13.556;2024-02-26T07:54:32;30.97;;;16.97;;
16922;SDS011;8578;50.938;13.556;2024-02-26T07:57:00;38.30;;;19.80;;
16922;SDS011;8578;50.938;13.556;2024-02-26T07:59:27;26.37;;;15.10;;
16922;SDS011;8578;50.938;13.556;2024-02-26T08:01:56;17.63;;;11.27;;
16922;SDS011;8578;50.938;13.556;2024-02-26T08:04:24;20.60;;;12.03;;
16922;SDS011;8578;50.938;13.556;2024-02-26T08:06:54;18.23;;;10.67;;
16922;SDS011;8578;50.938;13.556;2024-02-26T08:09:22;16.53;;;9.83;;
16922;SDS011;8578;50.938;13.556;2024-02-26T08:11:50;16.47;;;9.30;;
16922;SDS011;8578;50.938;13.556;2024-02-26T08:14:18;13.80;;;8.80;;
16922;SDS011;8578;50.938;13.556;2024-02-26T08:16:45;15.03;;;8.40;;
16922;SDS011;8578;50.938;13.556;2024-02-26T08:19:13;12.23;;;7.70;;
16922;SDS011;8578;50.938;13.556;2024-02-26T08:21:45;14.63;;;8.20;;
16922;SDS011;8578;50.938;13.556;2024-02-26T08:24:15;11.87;;;6.70;;
16922;SDS011;8578;50.938;13.556;2024-02-26T08:26:43;13.10;;;6.53;;
16922;SDS011;8578;50.938;13.556;2024-02-26T08:29:10;13.87;;;6.43;;
16922;SDS011;8578;50.938;13.556;2024-02-26T08:31:38;10.60;;;6.70;;
16922;SDS011;8578;50.938;13.556;2024-02-26T08:34:06;10.93;;;6.20;;
16922;SDS011;8578;50.938;13.556;2024-02-26T08:36:34;10.37;;;6.53;;
16922;SDS011;8578;50.938;13.556;2024-02-26T08:39:02;10.67;;;6.17;;
16922;SDS011;8578;50.938;13.556;2024-02-26T08:41:32;10.57;;;6.20;;
16922;SDS011;8578;50.938;13.556;2024-02-26T08:44:00;9.40;;;5.63;;
16922;SDS011;8578;50.938;13.556;2024-02-26T08:46:27;8.37;;;5.37;;
16922;SDS011;8578;50.938;13.556;2024-02-26T08:48:56;8.67;;;5.33;;
16922;SDS011;8578;50.938;13.556;2024-02-26T08:51:25;9.23;;;6.20;;
16922;SDS011;8578;50.938;13.556;2024-02-26T08:53:53;9.30;;;5.80;;
16922;SDS011;8578;50.938;13.556;2024-02-26T08:56:21;8.03;;;4.90;;
16922;SDS011;8578;50.938;13.556;2024-02-26T08:58:50;7.67;;;4.80;;
16922;SDS011;8578;50.938;13.556;2024-02-26T09:01:21;10.90;;;5.47;;
16922;SDS011;8578;50.938;13.556;2024-02-26T09:03:51;9.17;;;5.63;;
16922;SDS011;8578;50.938;13.556;2024-02-26T09:06:18;10.07;;;5.27;;
16922;SDS011;8578;50.938;13.556;2024-02-26T09:08:46;8.00;;;5.20;;
16922;SDS011;8578;50.938;13.556;2024-02-26T09:11:13;8.00;;;5.23;;
16922;SDS011;8578;50.938;13.556;2024-02-26T09:13:41;8.80;;;5.27;;
16922;SDS011;8578;50.938;13.556;2024-02-26T09:16:11;10.47;;;5.47;;
16922;SDS011;8578;50.938;13.556;2024-02-26T09:18:39;10.73;;;5.13;;
16922;SDS011;8578;50.938;13.556;2024-02-26T09:21:07;10.37;;;5.20;;
16922;SDS011;8578;50.938;13.556;2024-02-26T09:23:35;8.33;;;5.77;;
16922;SDS011;8578;50.938;13.556;2024-02-26T09:26:04;8.40;;;5.67;;
16922;SDS011;8578;50.938;13.556;2024-02-26T09:28:32;8.57;;;5.43;;
16922;SDS011;8578;50.938;13.556;2024-02-26T09:31:03;9.40;;;5.23;;
16922;SDS011;8578;50.938;13.556;2024-02-26T09:33:32;8.90;;;5.60;;
16922;SDS011;8578;50.938;13.556;2024-02-26T09:36:01;7.33;;;4.97;;
16922;SDS011;8578;50.938;13.556;2024-02-26T09:38:29;9.30;;;5.50;;
16922;SDS011;8578;50.938;13.556;2024-02-26T09:41:11;8.13;;;5.70;;
16922;SDS011;8578;50.938;13.556;2024-02-26T09:43:41;8.60;;;5.20;;
16922;SDS011;8578;50.938;13.556;2024-02-26T09:46:11;7.83;;;5.43;;
16922;SDS011;8578;50.938;13.556;2024-02-26T09:48:40;7.73;;;5.60;;
16922;SDS011;8578;50.938;13.556;2024-02-26T09:51:08;8.70;;;5.90;;
16922;SDS011;8578;50.938;13.556;2024-02-26T09:53:38;8.43;;;5.83;;
16922;SDS011;8578;50.938;13.556;2024-02-26T09:56:09;9.27;;;6.03;;
16922;SDS011;8578;50.938;13.556;2024-02-26T09:58:37;7.60;;;5.33;;
16922;SDS011;8578;50.938;13.556;2024-02-26T10:01:07;8.67;;;5.87;;
16922;SDS011;8578;50.938;13.556;2024-02-26T10:03:41;6.77;;;4.93;;
16922;SDS011;8578;50.938;13.556;2024-02-26T10:06:10;8.73;;;5.67;;
16922;SDS011;8578;50.938;13.556;2024-02-26T10:08:38;7.10;;;4.93;;
16922;SDS011;8578;50.938;13.556;2024-02-26T10:11:06;8.73;;;5.23;;
16922;SDS011;8578;50.938;13.556;2024-02-26T10:13:34;7.13;;;5.13;;
16922;SDS011;8578;50.938;13.556;2024-02-26T10:16:01;6.83;;;4.63;;
16922;SDS011;8578;50.938;13.556;2024-02-26T10:18:46;6.70;;;4.90;;
16922;SDS011;8578;50.938;13.556;2024-02-26T10:21:17;7.47;;;5.33;;
16922;SDS011;8578;50.938;13.556;2024-02-26T10:23:46;7.47;;;4.80;;
16922;SDS011;8578;50.938;13.556;2024-02-26T10:26:15;9.40;;;5.57;;
16922;SDS011;8578;50.938;13.556;2024-02-26T10:28:43;7.90;;;5.40;;
16922;SDS011;8578;50.938;13.556;2024-02-26T10:31:11;8.27;;;5.03;;
16922;SDS011;8578;50.938;13.556;2024-02-26T10:33:40;8.20;;;4.90;;
16922;SDS011;8578;50.938;13.556;2024-02-26T10:39:23;7.00;;;4.80;;
16922;SDS011;8578;50.938;13.556;2024-02-26T10:41:50;8.53;;;5.40;;
16922;SDS011;8578;50.938;13.556;2024-02-26T10:44:19;8.77;;;5.00;;
16922;SDS011;8578;50.938;13.556;2024-02-26T10:46:46;6.63;;;4.97;;
16922;SDS011;8578;50.938;13.556;2024-02-26T10:49:15;8.10;;;5.57;;
16922;SDS011;8578;50.938;13.556;2024-02-26T10:51:46;6.83;;;4.97;;
16922;SDS011;8578;50.938;13.556;2024-02-26T10:54:18;8.53;;;5.60;;
16922;SDS011;8578;50.938;13.556;2024-02-26T10:56:48;8.70;;;5.80;;
16922;SDS011;8578;50.938;13.556;2024-02-26T10:59:17;9.90;;;5.47;;
16922;SDS011;8578;50.938;13.556;2024-02-26T11:01:47;8.90;;;5.87;;
16922;SDS011;8578;50.938;13.556;2024-02-26T11:04:16;9.33;;;6.20;;
16922;SDS011;8578;50.938;13.556;2024-02-26T11:06:43;9.60;;;6.50;;
16922;SDS011;8578;50.938;13.556;2024-02-26T11:09:12;8.73;;;6.30;;
16922;SDS011;8578;50.938;13.556;2024-02-26T11:11:40;9.43;;;6.57;;
16922;SDS011;8578;50.938;13.556;2024-02-26T11:14:10;8.70;;;6.23;;
16922;SDS011;8578;50.938;13.556;2024-02-26T11:16:39;6.97;;;5.37;;
16922;SDS011;8578;50.938;13.556;2024-02-26T11:19:08;8.67;;;5.80;;
16922;SDS011;8578;50.938;13.556;2024-02-26T11:21:36;8.53;;;6.00;;
16922;SDS011;8578;50.938;13.556;2024-02-26T11:24:09;8.17;;;5.60;;
16922;SDS011;8578;50.938;13.556;2024-02-26T11:26:39;8.13;;;6.03;;
16922;SDS011;8578;50.938;13.556;2024-02-26T11:29:13;8.20;;;6.13;;
16922;SDS011;8578;50.938;13.556;2024-02-26T11:31:41;10.00;;;6.77;;
16922;SDS011;8578;50.938;13.556;2024-02-26T11:34:09;9.63;;;6.33;;
16922;SDS011;8578;50.938;13.556;2024-02-26T11:36:36;9.30;;;6.63;;
16922;SDS011;8578;50.938;13.556;2024-02-26T11:39:05;10.20;;;6.80;;
16922;SDS011;8578;50.938;13.556;2024-02-26T11:41:33;11.33;;;6.40;;
16922;SDS011;8578;50.938;13.556;2024-02-26T11:44:01;8.33;;;5.40;;
16922;SDS011;8578;50.938;13.556;2024-02-26T11:46:32;10.17;;;6.57;;
16922;SDS011;8578;50.938;13.556;2024-02-26T11:49:00;9.40;;;6.57;;
16922;SDS011;8578;50.938;13.556;2024-02-26T11:51:32;7.67;;;5.93;;
16922;SDS011;8578;50.938;13.556;2024-02-26T11:54:00;7.40;;;6.23;;
16922;SDS011;8578;50.938;13.556;2024-02-26T11:56:27;9.87;;;6.63;;
16922;SDS011;8578;50.938;13.556;2024-02-26T11:59:01;13.13;;;6.20;;
16922;SDS011;8578;50.938;13.556;2024-02-26T12:01:43;9.53;;;6.33;;
16922;SDS011;8578;50.938;13.556;2024-02-26T12:04:13;9.80;;;6.30;;
16922;SDS011;8578;50.938;13.556;2024-02-26T12:06:41;11.07;;;6.57;;
16922;SDS011;8578;50.938;13.556;2024-02-26T12:09:09;8.73;;;6.07;;
16922;SDS011;8578;50.938;13.556;2024-02-26T12:11:37;8.07;;;6.10;;
16922;SDS011;8578;50.938;13.556;2024-02-26T12:14:05;7.40;;;5.33;;
16922;SDS011;8578;50.938;13.556;2024-02-26T12:16:35;8.40;;;5.63;;
16922;SDS011;8578;50.938;13.556;2024-02-26T12:19:08;7.87;;;5.77;;
16922;SDS011;8578;50.938;13.556;2024-02-26T12:21:37;8.23;;;5.80;;
16922;SDS011;8578;50.938;13.556;2024-02-26T12:24:09;8.07;;;5.63;;
16922;SDS011;8578;50.938;13.556;2024-02-26T12:26:38;8.57;;;5.90;;
16922;SDS011;8578;50.938;13.556;2024-02-26T12:29:06;7.50;;;5.63;;
16922;SDS011;8578;50.938;13.556;2024-02-26T12:31:35;8.10;;;5.87;;
16922;SDS011;8578;50.938;13.556;2024-02-26T12:34:03;8.47;;;6.53;;
16922;SDS011;8578;50.938;13.556;2024-02-26T12:36:34;8.67;;;6.47;;
16922;SDS011;8578;50.938;13.556;2024-02-26T12:39:02;9.30;;;6.20;;
16922;SDS011;8578;50.938;13.556;2024-02-26T12:41:32;9.67;;;6.07;;
16922;SDS011;8578;50.938;13.556;2024-02-26T12:43:59;9.27;;;7.00;;
16922;SDS011;8578;50.938;13.556;2024-02-26T12:46:28;10.57;;;6.50;;
16922;SDS011;8578;50.938;13.556;2024-02-26T12:48:57;10.40;;;6.17;;
16922;SDS011;8578;50.938;13.556;2024-02-26T12:51:27;9.13;;;6.17;;
16922;SDS011;8578;50.938;13.556;2024-02-26T12:53:57;9.63;;;6.83;;
16922;SDS011;8578;50.938;13.556;2024-02-26T12:56:26;9.70;;;7.00;;
16922;SDS011;8578;50.938;13.556;2024-02-26T12:58:54;10.23;;;6.97;;
16922;SDS011;8578;50.938;13.556;2024-02-26T13:01:23;9.03;;;6.77;;
16922;SDS011;8578;50.938;13.556;2024-02-26T13:03:51;7.87;;;6.03;;
16922;SDS011;8578;50.938;13.556;2024-02-26T13:06:19;8.80;;;6.43;;
16922;SDS011;8578;50.938;13.556;2024-02-26T13:08:48;8.37;;;6.53;;
16922;SDS011;8578;50.938;13.556;2024-02-26T13:11:17;9.17;;;6.67;;
16922;SDS011;8578;50.938;13.556;2024-02-26T13:13:47;8.77;;;7.10;;
16922;SDS011;8578;50.938;13.556;2024-02-26T13:16:15;9.73;;;6.60;;
16922;SDS011;8578;50.938;13.556;2024-02-26T13:18:43;10.37;;;7.07;;
16922;SDS011;8578;50.938;13.556;2024-02-26T13:21:12;8.67;;;6.60;;
16922;SDS011;8578;50.938;13.556;2024-02-26T13:23:41;8.00;;;5.97;;
16922;SDS011;8578;50.938;13.556;2024-02-26T13:26:11;11.97;;;6.27;;
16922;SDS011;8578;50.938;13.556;2024-02-26T13:28:40;11.40;;;7.33;;
16922;SDS011;8578;50.938;13.556;2024-02-26T13:31:08;10.30;;;6.33;;
16922;SDS011;8578;50.938;13.556;2024-02-26T13:33:36;8.60;;;6.37;;
16922;SDS011;8578;50.938;13.556;2024-02-26T13:36:04;10.50;;;6.83;;
16922;SDS011;8578;50.938;13.556;2024-02-26T13:38:32;9.37;;;7.00;;
16922;SDS011;8578;50.938;13.556;2024-02-26T13:40:59;8.70;;;6.30;;
16922;SDS011;8578;50.938;13.556;2024-02-26T13:43:27;9.30;;;6.50;;
16922;SDS011;8578;50.938;13.556;2024-02-26T13:45:56;8.60;;;6.77;;
16922;SDS011;8578;50.938;13.556;2024-02-26T13:48:24;7.53;;;6.17;;
16922;SDS011;8578;50.938;13.556;2024-02-26T13:50:53;9.83;;;5.87;;
16922;SDS011;8578;50.938;13.556;2024-02-26T13:53:21;7.70;;;5.90;;
16922;SDS011;8578;50.938;13.556;2024-02-26T13:55:50;7.40;;;5.93;;
16922;SDS011;8578;50.938;13.556;2024-02-26T13:58:17;7.20;;;6.00;;
16922;SDS011;8578;50.938;13.556;2024-02-26T14:00:49;7.80;;;6.00;;
16922;SDS011;8578;50.938;13.556;2024-02-26T14:03:18;7.80;;;5.80;;
16922;SDS011;8578;50.938;13.556;2024-02-26T14:05:46;9.33;;;5.97;;
16922;SDS011;8578;50.938;13.556;2024-02-26T14:08:14;8.57;;;6.10;;
16922;SDS011;8578;50.938;13.556;2024-02-26T14:10:42;7.60;;;5.47;;
16922;SDS011;8578;50.938;13.556;2024-02-26T14:13:10;8.10;;;5.17;;
16922;SDS011;8578;50.938;13.556;2024-02-26T14:15:38;7.53;;;5.30;;
16922;SDS011;8578;50.938;13.556;2024-02-26T14:18:07;7.13;;;5.37;;
16922;SDS011;8578;50.938;13.556;2024-02-26T14:20:36;7.33;;;5.17;;
16922;SDS011;8578;50.938;13.556;2024-02-26T14:23:06;6.60;;;5.50;;
16922;SDS011;8578;50.938;13.556;2024-02-26T14:25:35;7.50;;;5.70;;
16922;SDS011;8578;50.938;13.556;2024-02-26T14:28:03;8.07;;;5.50;;
16922;SDS011;8578;50.938;13.556;2024-02-26T14:30:33;6.80;;;4.80;;
16922;SDS011;8578;50.938;13.556;2024-02-26T14:33:01;8.20;;;5.47;;
16922;SDS011;8578;50.938;13.556;2024-02-26T14:35:29;7.63;;;5.23;;
16922;SDS011;8578;50.938;13.556;2024-02-26T14:37:59;8.40;;;5.40;;
16922;SDS011;8578;50.938;13.556;2024-02-26T14:40:28;8.53;;;6.03;;
16922;SDS011;8578;50.938;13.556;2024-02-26T14:42:56;9.03;;;6.47;;
16922;SDS011;8578;50.938;13.556;2024-02-26T14:45:26;12.23;;;8.33;;
16922;SDS011;8578;50.938;13.556;2024-02-26T14:47:54;18.73;;;10.53;;
16922;SDS011;8578;50.938;13.556;2024-02-26T14:50:21;13.93;;;8.50;;
16922;SDS011;8578;50.938;13.556;2024-02-26T14:52:51;12.60;;;7.20;;